KBQK/BQK METAR and TAF weather

Enter ICAO airport designator
Station Type Date Time Source
KBQK METAR 2021/05/16 00:15 UTC NOAA

KBQK 160015Z AUTO 10004KT 10SM CLR 19/09 A3020 RMK AO2 T01910092


Station Type Date Time Source
KBQK Decoded METAR 2021/05/16 00:15 UTC NOAA

Brunswick / Glynco, GA, United States (KBQK) 31-15N 081-28W
May 15, 2021 - 08:15 PM EDT / 2021.05.16 0015 UTC
Wind: from the E (100 degrees) at 5 MPH (4 KT):0
Visibility: 10 mile(s):0
Sky conditions: clear
Temperature: 66.4 F (19.1 C)
Dew Point: 48.6 F (9.2 C)
Relative Humidity: 52%
Pressure (altimeter): 30.2 in. Hg (1022 hPa)
ob: KBQK 160015Z AUTO 10004KT 10SM CLR 19/09 A3020 RMK AO2 T01910092
cycle: 0

Station Type Date Time Source
KBQK TAF UTC NOAA

Error!

Example: see airport list